createdAt,value
2018-04-29T00:02:05.477Z,98548.34
2018-04-29T00:04:33.878Z,98546.84
2018-04-29T00:07:03.044Z,98544.97
2018-04-29T00:09:32.478Z,98544.87
2018-04-29T00:12:00.964Z,98544.22
2018-04-29T00:14:30.371Z,98543.16
2018-04-29T00:16:59.654Z,98548.42
2018-04-29T00:19:28.245Z,98543.31
2018-04-29T00:21:57.548Z,98536.58
2018-04-29T00:24:26.737Z,98544.45
2018-04-29T00:26:56.092Z,98536.34
2018-04-29T00:29:25.358Z,98539.77
2018-04-29T00:31:53.751Z,98544.61
2018-04-29T00:34:23.516Z,98541.73
2018-04-29T00:36:53.032Z,98539.13
2018-04-29T00:39:21.982Z,98530.06
2018-04-29T00:41:51.697Z,98534.34
2018-04-29T00:44:20.079Z,98540.77
2018-04-29T00:46:49.405Z,98532.00
2018-04-29T00:49:19.040Z,98527.83
2018-04-29T00:51:59.748Z,98530.24
2018-04-29T00:54:28.986Z,98534.66
2018-04-29T00:56:58.180Z,98538.22
2018-04-29T00:59:27.440Z,98533.18
2018-04-29T01:01:57.013Z,98539.44
2018-04-29T01:04:26.255Z,98538.59
2018-04-29T01:06:55.331Z,98539.68
2018-04-29T01:09:23.661Z,98540.58
2018-04-29T01:11:52.019Z,98542.86
2018-04-29T01:14:20.332Z,98536.29
2018-04-29T01:16:49.688Z,98539.00
2018-04-29T01:19:18.089Z,98536.53
2018-04-29T01:21:46.590Z,98537.20
2018-04-29T01:24:18.788Z,98533.41
2018-04-29T01:26:47.318Z,98531.00
2018-04-29T01:29:17.603Z,98528.77
2018-04-29T01:31:46.863Z,98536.19
2018-04-29T01:34:16.714Z,98540.22
2018-04-29T01:36:45.931Z,98545.03
2018-04-29T01:39:14.800Z,98537.09
2018-04-29T01:41:43.867Z,98539.48
2018-04-29T01:44:13.417Z,98539.30
2018-04-29T01:46:42.601Z,98546.23
2018-04-29T01:49:11.893Z,98545.56
2018-04-29T01:51:40.965Z,98539.57
2018-04-29T01:54:10.115Z,98540.69
2018-04-29T01:56:38.660Z,98535.69
2018-04-29T01:59:07.033Z,98523.86
2018-04-29T02:01:36.427Z,98523.13
2018-04-29T02:04:07.160Z,98525.75
2018-04-29T02:06:35.706Z,98514.22
2018-04-29T02:09:04.048Z,98507.54
2018-04-29T02:11:34.958Z,98498.93
2018-04-29T02:14:05.083Z,98496.61
2018-04-29T02:16:33.683Z,98493.03
2018-04-29T02:19:02.424Z,98493.92
2018-04-29T02:21:30.776Z,98488.88
2018-04-29T02:24:00.468Z,98494.50
2018-04-29T02:26:30.159Z,98490.71
2018-04-29T02:29:00.192Z,98484.99
2018-04-29T02:31:28.623Z,98472.08
2018-04-29T02:33:57.749Z,98480.98
2018-04-29T02:36:26.590Z,98470.91
2018-04-29T02:38:55.227Z,98468.61
2018-04-29T02:41:24.662Z,98468.31
2018-04-29T02:43:53.139Z,98467.34
2018-04-29T02:46:24.187Z,98464.38
2018-04-29T02:48:53.608Z,98462.57
2018-04-29T02:51:22.235Z,98454.47
2018-04-29T02:53:52.224Z,98449.92
2018-04-29T02:56:22.273Z,98445.36
2018-04-29T02:58:50.579Z,98443.97
2018-04-29T03:01:18.966Z,98450.84
2018-04-29T03:03:48.150Z,98457.41
2018-04-29T03:06:17.408Z,98449.42
2018-04-29T03:08:45.771Z,98437.20
2018-04-29T03:11:14.981Z,98438.28
2018-04-29T03:13:44.207Z,98435.75
2018-04-29T03:16:14.770Z,98431.48
2018-04-29T03:18:43.843Z,98430.89
2018-04-29T03:21:12.433Z,98435.88
2018-04-29T03:23:41.417Z,98428.72
2018-04-29T03:26:10.936Z,98432.22
2018-04-29T03:28:40.149Z,98434.02
2018-04-29T03:31:08.565Z,98424.89
2018-04-29T03:33:37.820Z,98406.44
2018-04-29T03:36:07.120Z,98415.87
2018-04-29T03:38:35.481Z,98415.63
2018-04-29T03:41:06.038Z,98413.72
2018-04-29T03:43:35.595Z,98410.34
2018-04-29T03:46:03.941Z,98405.66
2018-04-29T03:48:34.081Z,98410.06
2018-04-29T03:51:03.477Z,98409.20
2018-04-29T03:53:32.609Z,98407.59
2018-04-29T03:56:01.826Z,98405.84
2018-04-29T03:58:42.598Z,98405.48
2018-04-29T04:01:24.833Z,98404.33
2018-04-29T04:04:00.496Z,98403.51
2018-04-29T04:06:29.389Z,98408.60
2018-04-29T04:08:58.302Z,98415.08
2018-04-29T04:11:26.675Z,98409.31
2018-04-29T04:13:55.919Z,98403.20
2018-04-29T04:16:25.567Z,98408.41
2018-04-29T04:18:55.523Z,98402.30
2018-04-29T04:21:24.857Z,98402.72
2018-04-29T04:23:53.318Z,98408.73
2018-04-29T04:26:22.513Z,98410.34
2018-04-29T04:28:52.025Z,98396.83
2018-04-29T04:31:22.288Z,98402.64
2018-04-29T04:33:51.905Z,98399.45
2018-04-29T04:36:22.257Z,98403.77
2018-04-29T04:38:51.510Z,98408.18
2018-04-29T04:41:19.977Z,98403.62
2018-04-29T04:43:48.436Z,98401.45
2018-04-29T04:46:16.790Z,98402.05
2018-04-29T04:48:46.083Z,98395.17
2018-04-29T04:51:14.473Z,98393.59
2018-04-29T04:53:42.907Z,98389.91
2018-04-29T04:56:11.240Z,98387.09
2018-04-29T04:58:39.561Z,98379.76
2018-04-29T05:01:07.889Z,98383.01
2018-04-29T05:03:40.629Z,98378.20
2018-04-29T05:06:09.012Z,98374.49
2018-04-29T05:08:37.367Z,98371.89
2018-04-29T05:11:05.707Z,98371.30
2018-04-29T05:13:36.536Z,98361.45
2018-04-29T05:16:04.912Z,98361.09
2018-04-29T05:18:33.291Z,98363.43
2018-04-29T05:21:02.812Z,98360.42
2018-04-29T05:23:32.068Z,98367.34
2018-04-29T05:26:01.918Z,98365.82
2018-04-29T05:28:30.973Z,98365.42
2018-04-29T05:31:00.499Z,98354.75
2018-04-29T05:33:29.639Z,98352.27
2018-04-29T05:35:58.652Z,98355.56
2018-04-29T05:38:27.273Z,98357.69
2018-04-29T05:40:55.602Z,98366.14
2018-04-29T05:43:24.221Z,98377.65
2018-04-29T05:45:53.732Z,98382.54
2018-04-29T05:48:22.345Z,98391.03
2018-04-29T05:50:52.515Z,98389.27
2018-04-29T05:53:22.494Z,98390.23
2018-04-29T05:55:52.475Z,98388.31
2018-04-29T05:58:22.355Z,98388.45
2018-04-29T06:00:55.188Z,98396.59
2018-04-29T06:03:23.725Z,98401.50
2018-04-29T06:05:52.799Z,98404.82
2018-04-29T06:08:22.545Z,98401.47
2018-04-29T06:10:51.032Z,98393.52
2018-04-29T06:13:19.960Z,98387.95
2018-04-29T06:15:49.419Z,98383.13
2018-04-29T06:18:18.689Z,98393.69
2018-04-29T06:20:48.088Z,98387.58
2018-04-29T06:23:16.507Z,98403.19
2018-04-29T06:25:44.927Z,98399.89
2018-04-29T06:28:13.386Z,98390.70
2018-04-29T06:30:41.806Z,98388.31
2018-04-29T06:33:10.143Z,98386.41
2018-04-29T06:35:38.498Z,98388.13
2018-04-29T06:38:07.892Z,98389.27
2018-04-29T06:40:37.078Z,98393.59
2018-04-29T06:43:06.806Z,98394.08
2018-04-29T06:45:36.645Z,98390.31
2018-04-29T06:48:06.616Z,98384.35
2018-04-29T06:50:35.001Z,98371.43
2018-04-29T06:53:04.065Z,98367.55
2018-04-29T06:55:33.228Z,98335.66
2018-04-29T06:58:01.642Z,98278.56
2018-04-29T07:00:30.679Z,98290.09
2018-04-29T07:02:59.194Z,98335.22
2018-04-29T07:05:27.807Z,98336.97
2018-04-29T07:07:57.229Z,98340.02
2018-04-29T07:10:26.383Z,98332.00
2018-04-29T07:12:56.956Z,98319.50
2018-04-29T07:15:26.212Z,98305.66
2018-04-29T07:17:56.561Z,98310.30
2018-04-29T07:20:28.329Z,98312.72
2018-04-29T07:22:57.477Z,98317.67
2018-04-29T07:25:26.251Z,98310.55
2018-04-29T07:27:55.562Z,98310.38
2018-04-29T07:30:24.801Z,98308.98
2018-04-29T07:32:53.538Z,98317.60
2018-04-29T07:35:23.048Z,98320.83
2018-04-29T07:37:53.054Z,98317.37
2018-04-29T07:40:21.505Z,98313.72
2018-04-29T07:42:50.007Z,98303.38
2018-04-29T07:45:20.223Z,98296.27
2018-04-29T07:47:48.622Z,98295.20
2018-04-29T07:50:17.881Z,98293.69
2018-04-29T07:52:47.209Z,98301.19
2018-04-29T07:55:15.776Z,98309.45
2018-04-29T07:57:44.977Z,98308.11
2018-04-29T08:00:14.795Z,98326.02
2018-04-29T08:02:43.153Z,98337.05
2018-04-29T08:05:11.543Z,98354.00
2018-04-29T08:07:39.930Z,98368.69
2018-04-29T08:10:09.106Z,98393.23
2018-04-29T08:12:37.533Z,98418.37
2018-04-29T08:15:06.950Z,98447.18
2018-04-29T08:17:37.437Z,98461.44
2018-04-29T08:20:05.786Z,98458.84
2018-04-29T08:22:34.922Z,98459.64
2018-04-29T08:25:05.030Z,98463.52
2018-04-29T08:27:35.217Z,98456.64
2018-04-29T08:30:04.782Z,98417.31
2018-04-29T08:32:34.752Z,98398.41
2018-04-29T08:35:04.886Z,98411.75
2018-04-29T08:37:33.296Z,98428.48
2018-04-29T08:40:01.671Z,98431.39
2018-04-29T08:42:30.993Z,98410.88
2018-04-29T08:45:00.501Z,98419.00
2018-04-29T08:47:29.815Z,98404.02
2018-04-29T08:49:58.294Z,98369.53
2018-04-29T08:52:27.320Z,98396.39
2018-04-29T08:54:58.236Z,98396.43
2018-04-29T08:57:27.521Z,98389.70
2018-04-29T08:59:57.001Z,98402.61
2018-04-29T09:02:25.626Z,98420.95
2018-04-29T09:04:54.024Z,98420.09
2018-04-29T09:07:22.368Z,98422.70
2018-04-29T09:09:50.775Z,98423.51
2018-04-29T09:12:19.940Z,98429.16
2018-04-29T09:14:49.245Z,98435.80
2018-04-29T09:17:18.127Z,98435.18
2018-04-29T09:19:46.462Z,98433.22
2018-04-29T09:22:14.862Z,98447.28
2018-04-29T09:24:46.026Z,98440.12
2018-04-29T09:27:15.875Z,98425.33
2018-04-29T09:29:44.900Z,98411.53
2018-04-29T09:32:14.214Z,98416.86
2018-04-29T09:34:44.350Z,98425.86
2018-04-29T09:37:15.284Z,98435.95
2018-04-29T09:39:43.616Z,98444.52
2018-04-29T09:42:12.067Z,98432.17
2018-04-29T09:44:40.583Z,98400.05
2018-04-29T09:47:08.946Z,98379.02
2018-04-29T09:49:37.540Z,98385.47
2018-04-29T09:52:07.934Z,98367.34
2018-04-29T09:54:41.594Z,98352.82
2018-04-29T09:57:10.003Z,98344.73
2018-04-29T09:59:40.771Z,98329.70
2018-04-29T10:02:12.476Z,98321.44
2018-04-29T10:04:41.423Z,98310.53
2018-04-29T10:07:11.577Z,98307.38
2018-04-29T10:09:41.134Z,98304.88
2018-04-29T10:12:10.616Z,98303.59
2018-04-29T10:14:40.188Z,98298.68
2018-04-29T10:17:10.797Z,98288.26
2018-04-29T10:19:39.794Z,98287.84
2018-04-29T10:22:09.649Z,98281.92
2018-04-29T10:24:38.469Z,98272.42
2018-04-29T10:27:08.934Z,98281.98
2018-04-29T10:29:37.767Z,98280.22
2018-04-29T10:32:06.863Z,98266.30
2018-04-29T10:34:35.524Z,98259.44
2018-04-29T10:37:04.135Z,98266.27
2018-04-29T10:39:34.481Z,98263.45
2018-04-29T10:42:04.003Z,98264.27
2018-04-29T10:44:34.867Z,98253.21
2018-04-29T10:47:04.125Z,98256.77
2018-04-29T10:49:33.685Z,98257.23
2018-04-29T10:52:02.456Z,98251.09
2018-04-29T10:54:31.953Z,98236.09
2018-04-29T10:57:00.848Z,98236.58
2018-04-29T10:59:29.239Z,98231.24
2018-04-29T11:01:58.507Z,98223.63
2018-04-29T11:04:26.884Z,98217.33
2018-04-29T11:06:55.312Z,98213.77
2018-04-29T11:09:25.620Z,98204.05
2018-04-29T11:11:55.589Z,98196.09
2018-04-29T11:14:23.970Z,98195.25
2018-04-29T11:16:53.208Z,98197.59
2018-04-29T11:19:23.403Z,98198.35
2018-04-29T11:21:52.748Z,98192.66
2018-04-29T11:24:21.896Z,98192.13
2018-04-29T11:26:50.474Z,98188.60
2018-04-29T11:29:19.909Z,98182.87
2018-04-29T11:31:49.897Z,98188.96
2018-04-29T11:34:19.195Z,98184.43
2018-04-29T11:36:47.520Z,98186.44
2018-04-29T11:39:15.945Z,98179.13
2018-04-29T11:41:44.357Z,98180.57
2018-04-29T11:44:14.293Z,98171.97
2018-04-29T11:46:44.025Z,98175.41
2018-04-29T11:49:12.850Z,98167.38
2018-04-29T11:51:43.253Z,98165.83
2018-04-29T11:54:13.450Z,98162.91
2018-04-29T11:56:42.665Z,98152.47
2018-04-29T11:59:13.071Z,98148.97
2018-04-29T12:01:41.678Z,98146.03
2018-04-29T12:04:10.899Z,98144.94
2018-04-29T12:06:39.780Z,98137.55
2018-04-29T12:09:12.803Z,98137.75
2018-04-29T12:11:41.902Z,98129.22
2018-04-29T12:14:10.412Z,98127.02
2018-04-29T12:16:39.323Z,98122.11
2018-04-29T12:19:09.910Z,98115.45
2018-04-29T12:21:38.303Z,98108.80
2018-04-29T12:24:07.477Z,98109.05
2018-04-29T12:26:36.731Z,98100.17
2018-04-29T12:29:05.107Z,98094.18
2018-04-29T12:31:33.497Z,98078.83
2018-04-29T12:34:04.126Z,98081.37
2018-04-29T12:36:32.444Z,98068.02
2018-04-29T12:39:01.784Z,98064.44
2018-04-29T12:41:31.932Z,98056.00
2018-04-29T12:44:00.504Z,98045.73
2018-04-29T12:46:29.609Z,98046.98
2018-04-29T12:48:58.022Z,98040.71
2018-04-29T12:51:27.204Z,98032.06
2018-04-29T12:53:56.241Z,98021.97
2018-04-29T12:56:25.353Z,98012.98
2018-04-29T12:58:54.449Z,98004.14
2018-04-29T13:01:22.769Z,98000.76
2018-04-29T13:03:51.154Z,97991.07
2018-04-29T13:06:19.464Z,97992.50
2018-04-29T13:08:47.883Z,97994.77
2018-04-29T13:11:17.415Z,97990.57
2018-04-29T13:13:45.742Z,97985.53
2018-04-29T13:16:15.045Z,97979.00
2018-04-29T13:18:43.384Z,97978.49
2018-04-29T13:21:12.638Z,97971.88
2018-04-29T13:23:41.453Z,97968.98
2018-04-29T13:26:13.294Z,97965.81
2018-04-29T13:28:41.649Z,97960.73
2018-04-29T13:31:10.205Z,97954.24
2018-04-29T13:33:38.802Z,97945.48
2018-04-29T13:36:07.879Z,97948.78
2018-04-29T13:38:37.236Z,97941.63
2018-04-29T13:41:06.898Z,97944.16
2018-04-29T13:43:36.084Z,97937.97
2018-04-29T13:46:06.296Z,97937.31
2018-04-29T13:48:35.912Z,97931.18
2018-04-29T13:51:04.605Z,97933.89
2018-04-29T13:53:33.398Z,97931.19
2018-04-29T13:56:03.353Z,97922.28
2018-04-29T13:58:31.733Z,97923.59
2018-04-29T14:01:01.786Z,97911.16
2018-04-29T14:03:30.501Z,97909.30
2018-04-29T14:06:00.887Z,97904.89
2018-04-29T14:08:29.268Z,97897.27
2018-04-29T14:10:59.254Z,97892.08
2018-04-29T14:13:27.707Z,97885.69
2018-04-29T14:15:56.962Z,97883.59
2018-04-29T14:18:26.460Z,97876.28
2018-04-29T14:20:55.181Z,97872.29
2018-04-29T14:23:26.155Z,97864.58
2018-04-29T14:25:54.751Z,97863.14
2018-04-29T14:28:25.252Z,97854.19
2018-04-29T14:30:56.123Z,97850.59
2018-04-29T14:33:26.921Z,97847.54
2018-04-29T14:35:56.398Z,97845.70
2018-04-29T14:38:25.553Z,97840.41
2018-04-29T14:40:54.821Z,97849.14
2018-04-29T14:43:23.232Z,97843.41
2018-04-29T14:45:52.261Z,97837.35
2018-04-29T14:48:20.670Z,97826.47
2018-04-29T14:50:49.755Z,97822.25
2018-04-29T14:53:18.508Z,97817.67
2018-04-29T14:55:48.744Z,97820.25
2018-04-29T14:58:18.999Z,97811.55
2018-04-29T15:00:47.828Z,97806.89
2018-04-29T15:03:16.899Z,97797.95
2018-04-29T15:05:45.767Z,97801.20
2018-04-29T15:08:14.160Z,97798.66
2018-04-29T15:10:43.838Z,97794.41
2018-04-29T15:13:12.230Z,97787.69
2018-04-29T15:15:42.634Z,97786.66
2018-04-29T15:18:38.432Z,97785.41
2018-04-29T15:21:09.170Z,97784.76
2018-04-29T15:23:38.596Z,97780.91
2018-04-29T15:26:07.446Z,97781.23
2018-04-29T15:28:35.821Z,97776.16
2018-04-29T15:31:06.568Z,97765.58
2018-04-29T15:33:35.796Z,97766.05
2018-04-29T15:36:04.581Z,97762.50
2018-04-29T15:38:34.377Z,97768.09
2018-04-29T15:41:03.589Z,97766.56
2018-04-29T15:43:31.951Z,97765.20
2018-04-29T15:46:00.732Z,97764.95
2018-04-29T15:48:29.973Z,97756.84
2018-04-29T15:50:59.945Z,97759.77
2018-04-29T15:53:28.939Z,97747.26
2018-04-29T15:55:58.209Z,97739.80
2018-04-29T15:58:27.554Z,97728.53
2018-04-29T16:00:57.422Z,97727.48
2018-04-29T16:03:27.132Z,97720.46
2018-04-29T16:05:55.488Z,97711.81
2018-04-29T16:08:24.083Z,97710.77
2018-04-29T16:10:52.452Z,97705.09
2018-04-29T16:13:22.025Z,97698.49
2018-04-29T16:15:52.588Z,97700.60
2018-04-29T16:18:20.967Z,97694.73
2018-04-29T16:20:50.100Z,97686.33
2018-04-29T16:23:18.513Z,97685.22
2018-04-29T16:25:47.703Z,97680.78
2018-04-29T16:28:17.184Z,97681.88
2018-04-29T16:30:46.614Z,97678.89
2018-04-29T16:33:14.984Z,97670.53
2018-04-29T16:35:45.495Z,97668.97
2018-04-29T16:38:15.255Z,97666.09
2018-04-29T16:40:44.541Z,97656.30
2018-04-29T16:43:13.952Z,97651.33
2018-04-29T16:45:42.743Z,97665.45
2018-04-29T16:48:11.405Z,97660.17
2018-04-29T16:50:41.490Z,97654.84
2018-04-29T16:53:09.808Z,97655.40
2018-04-29T16:55:38.580Z,97650.33
2018-04-29T16:58:07.580Z,97645.37
2018-04-29T17:00:36.124Z,97645.67
2018-04-29T17:03:04.442Z,97645.69
2018-04-29T17:05:35.552Z,97636.52
2018-04-29T17:08:03.931Z,97647.13
2018-04-29T17:10:33.792Z,97642.37
2018-04-29T17:13:03.541Z,97636.41
2018-04-29T17:15:31.991Z,97630.17
2018-04-29T17:18:00.338Z,97632.89
2018-04-29T17:20:29.864Z,97634.92
2018-04-29T17:22:58.199Z,97628.27
2018-04-29T17:25:26.594Z,97630.17
2018-04-29T17:27:55.151Z,97630.98
2018-04-29T17:30:24.773Z,97625.86
2018-04-29T17:32:54.149Z,97621.00
2018-04-29T17:35:24.557Z,97619.03
2018-04-29T17:37:54.256Z,97611.16
2018-04-29T17:40:23.116Z,97609.14
2018-04-29T17:42:51.491Z,97606.04
2018-04-29T17:45:22.236Z,97609.16
2018-04-29T17:47:51.668Z,97607.09
2018-04-29T17:50:20.581Z,97597.63
2018-04-29T17:52:49.294Z,97596.50
2018-04-29T17:55:17.646Z,97597.27
2018-04-29T17:57:49.197Z,97600.37
2018-04-29T18:00:20.036Z,97592.89
2018-04-29T18:02:48.608Z,97589.06
2018-04-29T18:05:17.049Z,97586.44
2018-04-29T18:07:46.285Z,97584.43
2018-04-29T18:10:16.069Z,97590.85
2018-04-29T18:12:44.488Z,97586.49
2018-04-29T18:15:12.856Z,97578.25
2018-04-29T18:17:41.602Z,97571.89
2018-04-29T18:20:10.851Z,97571.72
2018-04-29T18:22:39.317Z,97561.34
2018-04-29T18:25:07.725Z,97561.48
2018-04-29T18:27:36.093Z,97561.25
2018-04-29T18:30:04.987Z,97562.22
2018-04-29T18:32:34.220Z,97563.19
2018-04-29T18:35:03.467Z,97553.13
2018-04-29T18:37:31.799Z,97548.92
2018-04-29T18:40:02.334Z,97547.19
2018-04-29T18:42:31.607Z,97541.70
2018-04-29T18:45:01.437Z,97535.52
2018-04-29T18:47:30.166Z,97527.77
2018-04-29T18:49:59.497Z,97527.80
2018-04-29T18:52:27.810Z,97522.95
2018-04-29T18:54:56.874Z,97522.49
2018-04-29T18:57:25.347Z,97518.92
2018-04-29T18:59:54.912Z,97516.05
2018-04-29T19:02:23.212Z,97517.83
2018-04-29T19:04:51.870Z,97510.77
2018-04-29T19:07:20.685Z,97517.53
2018-04-29T19:09:49.266Z,97508.00
2018-04-29T19:12:19.262Z,97502.00
2018-04-29T19:14:47.640Z,97501.91
2018-04-29T19:17:16.822Z,97496.72
2018-04-29T19:19:45.174Z,97500.34
2018-04-29T19:22:14.584Z,97499.61
2018-04-29T19:24:43.031Z,97500.88
2018-04-29T19:27:12.277Z,97502.52
2018-04-29T19:29:41.528Z,97490.20
2018-04-29T19:32:09.985Z,97488.44
2018-04-29T19:34:39.375Z,97487.80
2018-04-29T19:37:08.961Z,97484.67
2018-04-29T19:39:38.374Z,97483.34
2018-04-29T19:42:07.613Z,97479.50
2018-04-29T19:44:36.928Z,97471.20
2018-04-29T19:47:05.247Z,97456.94
2018-04-29T19:49:35.903Z,97452.99
2018-04-29T19:52:05.593Z,97447.89
2018-04-29T19:54:33.971Z,97432.91
2018-04-29T19:57:02.888Z,97426.91
2018-04-29T19:59:31.317Z,97426.28
2018-04-29T20:01:59.724Z,97415.58
2018-04-29T20:04:28.762Z,97406.27
2018-04-29T20:06:58.260Z,97414.14
2018-04-29T20:09:26.695Z,97404.06
2018-04-29T20:11:56.234Z,97395.41
2018-04-29T20:14:25.728Z,97391.85
2018-04-29T20:16:54.698Z,97376.47
2018-04-29T20:19:24.463Z,97378.83
2018-04-29T20:21:52.868Z,97385.86
2018-04-29T20:24:22.008Z,97371.95
2018-04-29T20:26:51.610Z,97363.66
2018-04-29T20:29:22.546Z,97352.70
2018-04-29T20:31:50.879Z,97352.51
2018-04-29T20:34:20.396Z,97348.84
2018-04-29T20:36:50.022Z,97342.77
2018-04-29T20:39:19.167Z,97327.36
2018-04-29T20:41:48.399Z,97324.03
2018-04-29T20:44:17.667Z,97316.88
2018-04-29T20:46:46.088Z,97307.68
2018-04-29T20:49:15.445Z,97315.35
2018-04-29T20:51:44.417Z,97307.89
2018-04-29T20:54:12.872Z,97302.98
2018-04-29T20:56:43.605Z,97294.38
2018-04-29T20:59:12.050Z,97283.50
2018-04-29T21:01:40.393Z,97291.28
2018-04-29T21:04:08.751Z,97282.50
2018-04-29T21:06:38.109Z,97277.09
2018-04-29T21:09:07.009Z,97281.27
2018-04-29T21:11:37.469Z,97274.10
2018-04-29T21:14:05.846Z,97275.95
2018-04-29T21:16:35.225Z,97272.09
2018-04-29T21:19:03.583Z,97265.59
2018-04-29T21:21:32.035Z,97265.03
2018-04-29T21:24:01.138Z,97261.97
2018-04-29T21:26:29.497Z,97259.66
2018-04-29T21:28:58.992Z,97253.51
2018-04-29T21:31:27.917Z,97248.21
2018-04-29T21:33:56.716Z,97246.93
2018-04-29T21:36:25.431Z,97246.20
2018-04-29T21:38:54.946Z,97246.66
2018-04-29T21:41:24.232Z,97243.98
2018-04-29T21:43:52.832Z,97234.97
2018-04-29T21:46:21.205Z,97234.39
2018-04-29T21:48:50.082Z,97225.86
2018-04-29T21:51:19.608Z,97214.16
2018-04-29T21:53:47.939Z,97220.19
2018-04-29T21:56:16.634Z,97223.48
2018-04-29T21:58:44.975Z,97216.37
2018-04-29T22:01:13.697Z,97213.61
2018-04-29T22:03:42.054Z,97211.14
2018-04-29T22:06:11.535Z,97204.02
2018-04-29T22:08:40.194Z,97202.02
2018-04-29T22:11:09.057Z,97206.80
2018-04-29T22:13:39.109Z,97195.97
2018-04-29T22:16:09.065Z,97192.59
2018-04-29T22:18:37.940Z,97187.16
2018-04-29T22:21:06.796Z,97177.35
2018-04-29T22:23:36.341Z,97173.25
2018-04-29T22:26:05.612Z,97174.73
2018-04-29T22:28:35.100Z,97164.96
2018-04-29T22:31:03.777Z,97165.48
2018-04-29T22:33:32.113Z,97154.23
2018-04-29T22:36:01.467Z,97148.98
2018-04-29T22:38:30.465Z,97140.97
2018-04-29T22:41:00.762Z,97142.31
2018-04-29T22:43:29.263Z,97145.72
2018-04-29T22:45:58.744Z,97144.47
2018-04-29T22:48:28.018Z,97138.19
2018-04-29T22:50:57.973Z,97136.44
2018-04-29T22:53:27.173Z,97121.58
2018-04-29T22:55:56.379Z,97120.29
2018-04-29T22:58:25.932Z,97111.00
2018-04-29T23:00:56.005Z,97104.17
2018-04-29T23:03:24.325Z,97100.75
2018-04-29T23:05:52.894Z,97092.75
2018-04-29T23:08:22.416Z,97089.38
2018-04-29T23:10:51.111Z,97081.09
2018-04-29T23:13:21.548Z,97082.80
2018-04-29T23:15:49.904Z,97076.97
2018-04-29T23:18:19.188Z,97085.44
2018-04-29T23:20:48.287Z,97079.04
2018-04-29T23:23:17.329Z,97075.72
2018-04-29T23:25:45.683Z,97076.74
2018-04-29T23:28:16.461Z,97079.31
2018-04-29T23:30:46.847Z,97074.37
2018-04-29T23:33:16.142Z,97078.48
2018-04-29T23:35:47.349Z,97070.44
2018-04-29T23:38:15.674Z,97069.30
2018-04-29T23:40:44.698Z,97061.49
2018-04-29T23:43:13.451Z,97058.27
2018-04-29T23:45:43.624Z,97061.58
2018-04-29T23:48:12.234Z,97057.02
2018-04-29T23:50:43.075Z,97047.25
2018-04-29T23:53:12.485Z,97037.89
2018-04-29T23:55:42.217Z,97032.12
2018-04-29T23:58:11.615Z,97022.64
